sensor_id;sensor_type;location;lat;lon;timestamp;P1;durP1;ratioP1;P2;durP2;ratioP2
39782;SDS011;25462;51.164;17.100;2022-09-11T00:00:51;6.80;;;6.20;;
39782;SDS011;25462;51.164;17.100;2022-09-11T00:06:03;5.80;;;5.40;;
39782;SDS011;25462;51.164;17.100;2022-09-11T00:11:12;7.20;;;6.20;;
39782;SDS011;25462;51.164;17.100;2022-09-11T00:16:24;6.50;;;5.90;;
39782;SDS011;25462;51.164;17.100;2022-09-11T00:21:36;7.90;;;6.90;;
39782;SDS011;25462;51.164;17.100;2022-09-11T00:26:40;6.00;;;5.40;;
39782;SDS011;25462;51.164;17.100;2022-09-11T00:31:44;8.00;;;5.50;;
39782;SDS011;25462;51.164;17.100;2022-09-11T00:36:48;7.10;;;4.30;;
39782;SDS011;25462;51.164;17.100;2022-09-11T00:41:51;5.70;;;5.20;;
39782;SDS011;25462;51.164;17.100;2022-09-11T00:46:56;5.00;;;4.60;;
39782;SDS011;25462;51.164;17.100;2022-09-11T00:58:14;7.00;;;6.40;;
39782;SDS011;25462;51.164;17.100;2022-09-11T01:03:21;5.80;;;5.30;;
39782;SDS011;25462;51.164;17.100;2022-09-11T01:08:25;7.40;;;5.40;;
39782;SDS011;25462;51.164;17.100;2022-09-11T01:35:53;5.10;;;4.50;;
39782;SDS011;25462;51.164;17.100;2022-09-11T01:46:10;5.60;;;4.50;;
39782;SDS011;25462;51.164;17.100;2022-09-11T01:51:15;5.20;;;4.20;;
39782;SDS011;25462;51.164;17.100;2022-09-11T01:56:25;7.20;;;4.10;;
39782;SDS011;25462;51.164;17.100;2022-09-11T02:01:34;6.00;;;4.20;;
39782;SDS011;25462;51.164;17.100;2022-09-11T02:06:47;6.60;;;3.80;;
39782;SDS011;25462;51.164;17.100;2022-09-11T02:11:54;5.30;;;3.70;;
39782;SDS011;25462;51.164;17.100;2022-09-11T02:22:15;9.60;;;4.80;;
39782;SDS011;25462;51.164;17.100;2022-09-11T02:27:20;5.90;;;5.10;;
39782;SDS011;25462;51.164;17.100;2022-09-11T02:32:26;4.60;;;4.20;;
39782;SDS011;25462;51.164;17.100;2022-09-11T02:37:36;8.50;;;4.50;;
39782;SDS011;25462;51.164;17.100;2022-09-11T02:54:10;4.60;;;4.20;;
39782;SDS011;25462;51.164;17.100;2022-09-11T02:59:30;6.40;;;5.10;;
39782;SDS011;25462;51.164;17.100;2022-09-11T03:04:36;6.90;;;5.30;;
39782;SDS011;25462;51.164;17.100;2022-09-11T03:09:43;6.70;;;5.80;;
39782;SDS011;25462;51.164;17.100;2022-09-11T03:14:54;8.20;;;5.90;;
39782;SDS011;25462;51.164;17.100;2022-09-11T03:20:03;9.10;;;5.80;;
39782;SDS011;25462;51.164;17.100;2022-09-11T03:25:07;7.90;;;7.20;;
39782;SDS011;25462;51.164;17.100;2022-09-11T03:30:12;8.00;;;6.80;;
39782;SDS011;25462;51.164;17.100;2022-09-11T03:35:16;9.80;;;8.30;;
39782;SDS011;25462;51.164;17.100;2022-09-11T03:40:20;11.10;;;8.70;;
39782;SDS011;25462;51.164;17.100;2022-09-11T03:45:26;8.90;;;8.20;;
39782;SDS011;25462;51.164;17.100;2022-09-11T03:50:32;11.50;;;8.40;;
39782;SDS011;25462;51.164;17.100;2022-09-11T03:55:36;12.30;;;8.90;;
39782;SDS011;25462;51.164;17.100;2022-09-11T04:00:40;9.30;;;8.10;;
39782;SDS011;25462;51.164;17.100;2022-09-11T04:05:57;9.50;;;8.50;;
39782;SDS011;25462;51.164;17.100;2022-09-11T04:11:05;9.60;;;8.80;;
39782;SDS011;25462;51.164;17.100;2022-09-11T04:16:11;10.00;;;8.80;;
39782;SDS011;25462;51.164;17.100;2022-09-11T04:21:17;10.50;;;9.50;;
39782;SDS011;25462;51.164;17.100;2022-09-11T04:26:24;10.60;;;9.60;;
39782;SDS011;25462;51.164;17.100;2022-09-11T04:31:33;7.60;;;7.00;;
39782;SDS011;25462;51.164;17.100;2022-09-11T04:36:38;9.30;;;8.50;;
39782;SDS011;25462;51.164;17.100;2022-09-11T04:41:44;9.90;;;6.90;;
39782;SDS011;25462;51.164;17.100;2022-09-11T04:46:48;7.40;;;6.20;;
39782;SDS011;25462;51.164;17.100;2022-09-11T04:51:53;11.30;;;7.00;;
39782;SDS011;25462;51.164;17.100;2022-09-11T04:56:58;8.00;;;6.80;;
39782;SDS011;25462;51.164;17.100;2022-09-11T05:02:04;6.10;;;5.50;;
39782;SDS011;25462;51.164;17.100;2022-09-11T05:07:10;6.90;;;6.10;;
39782;SDS011;25462;51.164;17.100;2022-09-11T05:12:19;9.40;;;6.40;;
39782;SDS011;25462;51.164;17.100;2022-09-11T05:17:25;8.60;;;6.60;;
39782;SDS011;25462;51.164;17.100;2022-09-11T05:22:31;6.40;;;5.20;;
39782;SDS011;25462;51.164;17.100;2022-09-11T05:27:35;5.30;;;4.90;;
39782;SDS011;25462;51.164;17.100;2022-09-11T05:32:39;6.30;;;5.60;;
39782;SDS011;25462;51.164;17.100;2022-09-11T05:37:43;7.70;;;5.20;;
39782;SDS011;25462;51.164;17.100;2022-09-11T05:42:46;5.70;;;5.20;;
39782;SDS011;25462;51.164;17.100;2022-09-11T05:47:49;5.60;;;5.10;;
39782;SDS011;25462;51.164;17.100;2022-09-11T05:52:58;5.60;;;5.10;;
39782;SDS011;25462;51.164;17.100;2022-09-11T05:58:02;7.90;;;5.80;;
39782;SDS011;25462;51.164;17.100;2022-09-11T06:03:05;8.00;;;6.10;;
39782;SDS011;25462;51.164;17.100;2022-09-11T06:08:15;6.50;;;5.90;;
39782;SDS011;25462;51.164;17.100;2022-09-11T06:13:18;5.80;;;5.20;;
39782;SDS011;25462;51.164;17.100;2022-09-11T06:18:22;7.00;;;6.30;;
39782;SDS011;25462;51.164;17.100;2022-09-11T06:23:27;8.40;;;7.30;;
39782;SDS011;25462;51.164;17.100;2022-09-11T06:28:31;9.40;;;8.50;;
39782;SDS011;25462;51.164;17.100;2022-09-11T06:33:37;11.90;;;8.20;;
39782;SDS011;25462;51.164;17.100;2022-09-11T06:38:44;11.30;;;8.60;;
39782;SDS011;25462;51.164;17.100;2022-09-11T06:43:51;12.80;;;9.80;;
39782;SDS011;25462;51.164;17.100;2022-09-11T06:48:55;10.90;;;9.80;;
39782;SDS011;25462;51.164;17.100;2022-09-11T06:54:01;13.60;;;11.30;;
39782;SDS011;25462;51.164;17.100;2022-09-11T06:59:07;11.80;;;10.60;;
39782;SDS011;25462;51.164;17.100;2022-09-11T07:04:16;11.60;;;10.50;;
39782;SDS011;25462;51.164;17.100;2022-09-11T07:09:24;12.70;;;11.40;;
39782;SDS011;25462;51.164;17.100;2022-09-11T07:14:31;11.70;;;10.60;;
39782;SDS011;25462;51.164;17.100;2022-09-11T07:24:48;9.00;;;8.10;;
39782;SDS011;25462;51.164;17.100;2022-09-11T07:29:54;13.90;;;9.90;;
39782;SDS011;25462;51.164;17.100;2022-09-11T07:35:04;8.80;;;8.00;;
39782;SDS011;25462;51.164;17.100;2022-09-11T07:40:16;9.00;;;8.10;;
39782;SDS011;25462;51.164;17.100;2022-09-11T07:45:21;9.50;;;8.50;;
39782;SDS011;25462;51.164;17.100;2022-09-11T07:50:26;10.70;;;8.90;;
39782;SDS011;25462;51.164;17.100;2022-09-11T07:55:30;10.50;;;9.50;;
39782;SDS011;25462;51.164;17.100;2022-09-11T08:00:36;9.70;;;8.70;;
39782;SDS011;25462;51.164;17.100;2022-09-11T08:05:55;7.90;;;7.20;;
39782;SDS011;25462;51.164;17.100;2022-09-11T08:11:11;8.40;;;7.60;;
39782;SDS011;25462;51.164;17.100;2022-09-11T08:16:25;7.60;;;6.90;;
39782;SDS011;25462;51.164;17.100;2022-09-11T08:21:35;8.60;;;7.90;;
39782;SDS011;25462;51.164;17.100;2022-09-11T08:26:53;6.40;;;5.80;;
39782;SDS011;25462;51.164;17.100;2022-09-11T08:32:03;7.80;;;6.90;;
39782;SDS011;25462;51.164;17.100;2022-09-11T08:37:12;6.90;;;6.30;;
39782;SDS011;25462;51.164;17.100;2022-09-11T08:42:20;6.20;;;5.70;;
39782;SDS011;25462;51.164;17.100;2022-09-11T08:47:43;9.20;;;7.40;;
39782;SDS011;25462;51.164;17.100;2022-09-11T08:52:53;6.60;;;6.00;;
39782;SDS011;25462;51.164;17.100;2022-09-11T08:58:24;8.20;;;7.40;;
39782;SDS011;25462;51.164;17.100;2022-09-11T09:09:44;8.80;;;7.70;;
39782;SDS011;25462;51.164;17.100;2022-09-11T09:21:00;9.30;;;8.50;;
39782;SDS011;25462;51.164;17.100;2022-09-11T09:26:32;9.60;;;8.80;;
39782;SDS011;25462;51.164;17.100;2022-09-11T09:31:41;9.00;;;8.30;;
39782;SDS011;25462;51.164;17.100;2022-09-11T09:36:58;8.90;;;8.20;;
39782;SDS011;25462;51.164;17.100;2022-09-11T09:47:32;8.20;;;7.50;;
39782;SDS011;25462;51.164;17.100;2022-09-11T09:52:36;8.70;;;7.00;;
39782;SDS011;25462;51.164;17.100;2022-09-11T09:57:51;5.50;;;5.10;;
39782;SDS011;25462;51.164;17.100;2022-09-11T10:03:27;5.90;;;5.30;;
39782;SDS011;25462;51.164;17.100;2022-09-11T10:08:33;5.40;;;5.00;;
39782;SDS011;25462;51.164;17.100;2022-09-11T10:13:50;4.40;;;3.80;;
39782;SDS011;25462;51.164;17.100;2022-09-11T10:18:56;5.50;;;5.00;;
39782;SDS011;25462;51.164;17.100;2022-09-11T10:29:25;5.60;;;5.10;;
39782;SDS011;25462;51.164;17.100;2022-09-11T10:34:36;6.20;;;5.60;;
39782;SDS011;25462;51.164;17.100;2022-09-11T10:39:52;5.40;;;5.00;;
39782;SDS011;25462;51.164;17.100;2022-09-11T10:45:13;5.80;;;5.20;;
39782;SDS011;25462;51.164;17.100;2022-09-11T10:50:23;8.10;;;4.70;;
39782;SDS011;25462;51.164;17.100;2022-09-11T10:55:32;5.50;;;5.00;;
39782;SDS011;25462;51.164;17.100;2022-09-11T11:00:37;4.50;;;4.10;;
39782;SDS011;25462;51.164;17.100;2022-09-11T11:11:51;3.50;;;3.20;;
39782;SDS011;25462;51.164;17.100;2022-09-11T11:34:06;3.60;;;3.30;;
39782;SDS011;25462;51.164;17.100;2022-09-11T11:39:46;3.40;;;3.10;;
39782;SDS011;25462;51.164;17.100;2022-09-11T11:45:02;3.30;;;3.00;;
39782;SDS011;25462;51.164;17.100;2022-09-11T11:50:43;3.30;;;3.00;;
39782;SDS011;25462;51.164;17.100;2022-09-11T12:01:34;3.20;;;2.90;;
39782;SDS011;25462;51.164;17.100;2022-09-11T12:06:37;4.60;;;3.70;;
39782;SDS011;25462;51.164;17.100;2022-09-11T12:11:48;4.90;;;4.50;;
39782;SDS011;25462;51.164;17.100;2022-09-11T12:16:55;6.30;;;4.70;;
39782;SDS011;25462;51.164;17.100;2022-09-11T12:22:33;4.90;;;4.50;;
39782;SDS011;25462;51.164;17.100;2022-09-11T12:32:57;5.80;;;4.40;;
39782;SDS011;25462;51.164;17.100;2022-09-11T12:38:10;4.20;;;3.90;;
39782;SDS011;25462;51.164;17.100;2022-09-11T12:43:52;5.00;;;4.00;;
39782;SDS011;25462;51.164;17.100;2022-09-11T12:48:56;4.20;;;3.70;;
39782;SDS011;25462;51.164;17.100;2022-09-11T12:54:27;3.90;;;3.60;;
39782;SDS011;25462;51.164;17.100;2022-09-11T12:59:39;4.20;;;3.70;;
39782;SDS011;25462;51.164;17.100;2022-09-11T13:04:53;4.70;;;4.30;;
39782;SDS011;25462;51.164;17.100;2022-09-11T13:21:35;3.60;;;2.90;;
39782;SDS011;25462;51.164;17.100;2022-09-11T13:27:24;3.30;;;3.00;;
39782;SDS011;25462;51.164;17.100;2022-09-11T13:32:39;3.90;;;2.90;;
39782;SDS011;25462;51.164;17.100;2022-09-11T13:38:17;3.00;;;2.80;;
39782;SDS011;25462;51.164;17.100;2022-09-11T13:43:26;3.00;;;2.50;;
39782;SDS011;25462;51.164;17.100;2022-09-11T13:54:30;3.20;;;2.20;;
39782;SDS011;25462;51.164;17.100;2022-09-11T13:59:47;3.70;;;2.80;;
39782;SDS011;25462;51.164;17.100;2022-09-11T14:04:59;3.00;;;2.70;;
39782;SDS011;25462;51.164;17.100;2022-09-11T14:10:24;2.40;;;2.30;;
39782;SDS011;25462;51.164;17.100;2022-09-11T14:15:57;2.50;;;2.30;;
39782;SDS011;25462;51.164;17.100;2022-09-11T14:21:10;3.80;;;2.80;;
39782;SDS011;25462;51.164;17.100;2022-09-11T14:32:37;3.40;;;2.70;;
39782;SDS011;25462;51.164;17.100;2022-09-11T14:38:06;3.00;;;2.30;;
39782;SDS011;25462;51.164;17.100;2022-09-11T14:43:50;2.90;;;2.40;;
39782;SDS011;25462;51.164;17.100;2022-09-11T14:54:56;2.80;;;2.20;;
39782;SDS011;25462;51.164;17.100;2022-09-11T15:00:08;2.40;;;2.20;;
39782;SDS011;25462;51.164;17.100;2022-09-11T15:05:22;2.70;;;2.20;;
39782;SDS011;25462;51.164;17.100;2022-09-11T15:10:30;6.80;;;2.70;;
39782;SDS011;25462;51.164;17.100;2022-09-11T15:15:38;2.90;;;2.70;;
39782;SDS011;25462;51.164;17.100;2022-09-11T15:20:51;3.50;;;2.60;;
39782;SDS011;25462;51.164;17.100;2022-09-11T15:25:59;3.00;;;2.50;;
39782;SDS011;25462;51.164;17.100;2022-09-11T15:31:06;3.70;;;3.20;;
39782;SDS011;25462;51.164;17.100;2022-09-11T15:36:09;3.50;;;3.10;;
39782;SDS011;25462;51.164;17.100;2022-09-11T15:41:14;5.30;;;3.40;;
39782;SDS011;25462;51.164;17.100;2022-09-11T15:46:29;4.40;;;4.10;;
39782;SDS011;25462;51.164;17.100;2022-09-11T15:52:05;4.10;;;3.80;;
39782;SDS011;25462;51.164;17.100;2022-09-11T15:57:22;7.50;;;4.90;;
39782;SDS011;25462;51.164;17.100;2022-09-11T16:03:07;8.30;;;4.90;;
39782;SDS011;25462;51.164;17.100;2022-09-11T16:08:40;5.80;;;5.30;;
39782;SDS011;25462;51.164;17.100;2022-09-11T16:13:46;7.00;;;5.60;;
39782;SDS011;25462;51.164;17.100;2022-09-11T16:18:51;7.10;;;6.40;;
39782;SDS011;25462;51.164;17.100;2022-09-11T16:23:56;7.00;;;6.30;;
39782;SDS011;25462;51.164;17.100;2022-09-11T16:29:07;6.90;;;6.10;;
39782;SDS011;25462;51.164;17.100;2022-09-11T16:34:12;8.80;;;7.80;;
39782;SDS011;25462;51.164;17.100;2022-09-11T16:39:17;7.30;;;6.60;;
39782;SDS011;25462;51.164;17.100;2022-09-11T16:44:22;7.50;;;6.70;;
39782;SDS011;25462;51.164;17.100;2022-09-11T16:49:25;7.60;;;6.60;;
39782;SDS011;25462;51.164;17.100;2022-09-11T16:54:28;8.90;;;7.20;;
39782;SDS011;25462;51.164;17.100;2022-09-11T16:59:32;9.10;;;7.20;;
39782;SDS011;25462;51.164;17.100;2022-09-11T17:04:37;8.10;;;6.90;;
39782;SDS011;25462;51.164;17.100;2022-09-11T17:09:40;7.60;;;6.30;;
39782;SDS011;25462;51.164;17.100;2022-09-11T17:14:50;5.40;;;4.80;;
39782;SDS011;25462;51.164;17.100;2022-09-11T17:19:54;4.60;;;4.10;;
39782;SDS011;25462;51.164;17.100;2022-09-11T17:25:21;3.80;;;3.30;;
39782;SDS011;25462;51.164;17.100;2022-09-11T17:30:24;4.20;;;3.20;;
39782;SDS011;25462;51.164;17.100;2022-09-11T17:35:28;3.30;;;2.40;;
39782;SDS011;25462;51.164;17.100;2022-09-11T17:40:39;3.20;;;2.90;;
39782;SDS011;25462;51.164;17.100;2022-09-11T17:45:43;4.30;;;3.20;;
39782;SDS011;25462;51.164;17.100;2022-09-11T17:50:47;3.50;;;3.20;;
39782;SDS011;25462;51.164;17.100;2022-09-11T17:55:59;3.20;;;2.80;;
39782;SDS011;25462;51.164;17.100;2022-09-11T18:01:04;3.80;;;3.40;;
39782;SDS011;25462;51.164;17.100;2022-09-11T18:06:17;3.50;;;3.10;;
39782;SDS011;25462;51.164;17.100;2022-09-11T18:11:37;3.20;;;2.90;;
39782;SDS011;25462;51.164;17.100;2022-09-11T18:16:43;3.20;;;2.90;;
39782;SDS011;25462;51.164;17.100;2022-09-11T18:21:49;4.20;;;3.60;;
39782;SDS011;25462;51.164;17.100;2022-09-11T18:26:52;4.60;;;4.00;;
39782;SDS011;25462;51.164;17.100;2022-09-11T18:32:08;4.00;;;3.70;;
39782;SDS011;25462;51.164;17.100;2022-09-11T18:37:12;4.50;;;4.10;;
39782;SDS011;25462;51.164;17.100;2022-09-11T18:42:19;4.20;;;3.80;;
39782;SDS011;25462;51.164;17.100;2022-09-11T18:47:26;4.30;;;3.90;;
39782;SDS011;25462;51.164;17.100;2022-09-11T18:52:30;4.60;;;4.10;;
39782;SDS011;25462;51.164;17.100;2022-09-11T18:57:35;5.50;;;4.50;;
39782;SDS011;25462;51.164;17.100;2022-09-11T19:02:44;5.10;;;4.60;;
39782;SDS011;25462;51.164;17.100;2022-09-11T19:07:48;7.60;;;5.40;;
39782;SDS011;25462;51.164;17.100;2022-09-11T19:12:56;5.40;;;4.60;;
39782;SDS011;25462;51.164;17.100;2022-09-11T19:18:01;5.50;;;5.00;;
39782;SDS011;25462;51.164;17.100;2022-09-11T19:23:05;5.40;;;4.10;;
39782;SDS011;25462;51.164;17.100;2022-09-11T19:28:09;6.40;;;4.70;;
39782;SDS011;25462;51.164;17.100;2022-09-11T19:33:14;7.50;;;5.10;;
39782;SDS011;25462;51.164;17.100;2022-09-11T19:38:18;5.40;;;4.60;;
39782;SDS011;25462;51.164;17.100;2022-09-11T19:43:24;5.10;;;4.70;;
39782;SDS011;25462;51.164;17.100;2022-09-11T19:48:36;6.10;;;5.50;;
39782;SDS011;25462;51.164;17.100;2022-09-11T19:53:44;6.70;;;6.10;;
39782;SDS011;25462;51.164;17.100;2022-09-11T19:58:48;6.80;;;6.10;;
39782;SDS011;25462;51.164;17.100;2022-09-11T20:03:52;9.20;;;6.90;;
39782;SDS011;25462;51.164;17.100;2022-09-11T20:09:06;8.00;;;7.20;;
39782;SDS011;25462;51.164;17.100;2022-09-11T20:14:37;8.40;;;7.60;;
39782;SDS011;25462;51.164;17.100;2022-09-11T20:19:49;9.10;;;8.10;;
39782;SDS011;25462;51.164;17.100;2022-09-11T20:24:52;11.10;;;8.70;;
39782;SDS011;25462;51.164;17.100;2022-09-11T20:29:57;9.20;;;8.20;;
39782;SDS011;25462;51.164;17.100;2022-09-11T20:35:05;9.10;;;7.90;;
39782;SDS011;25462;51.164;17.100;2022-09-11T20:40:09;9.80;;;8.00;;
39782;SDS011;25462;51.164;17.100;2022-09-11T20:45:17;9.00;;;8.20;;
39782;SDS011;25462;51.164;17.100;2022-09-11T20:50:21;10.40;;;9.40;;
39782;SDS011;25462;51.164;17.100;2022-09-11T20:55:25;12.30;;;10.10;;
39782;SDS011;25462;51.164;17.100;2022-09-11T21:00:37;13.40;;;9.90;;
39782;SDS011;25462;51.164;17.100;2022-09-11T21:05:41;11.90;;;10.70;;
39782;SDS011;25462;51.164;17.100;2022-09-11T21:10:47;13.70;;;11.10;;
39782;SDS011;25462;51.164;17.100;2022-09-11T21:15:51;11.50;;;10.20;;
39782;SDS011;25462;51.164;17.100;2022-09-11T21:21:02;16.50;;;11.40;;
39782;SDS011;25462;51.164;17.100;2022-09-11T21:26:06;11.90;;;10.70;;
39782;SDS011;25462;51.164;17.100;2022-09-11T21:31:10;14.10;;;10.70;;
39782;SDS011;25462;51.164;17.100;2022-09-11T21:36:15;16.00;;;11.60;;
39782;SDS011;25462;51.164;17.100;2022-09-11T21:41:24;13.60;;;12.20;;
39782;SDS011;25462;51.164;17.100;2022-09-11T21:46:46;13.30;;;11.60;;
39782;SDS011;25462;51.164;17.100;2022-09-11T21:51:54;12.60;;;11.30;;
39782;SDS011;25462;51.164;17.100;2022-09-11T21:56:58;13.50;;;11.20;;
39782;SDS011;25462;51.164;17.100;2022-09-11T22:02:05;12.60;;;11.40;;
39782;SDS011;25462;51.164;17.100;2022-09-11T22:07:11;14.90;;;11.30;;
39782;SDS011;25462;51.164;17.100;2022-09-11T22:12:20;15.80;;;10.60;;
39782;SDS011;25462;51.164;17.100;2022-09-11T22:17:25;12.20;;;10.90;;
39782;SDS011;25462;51.164;17.100;2022-09-11T22:22:30;14.90;;;10.70;;
39782;SDS011;25462;51.164;17.100;2022-09-11T22:27:43;11.80;;;10.50;;
39782;SDS011;25462;51.164;17.100;2022-09-11T22:32:47;12.40;;;10.60;;
39782;SDS011;25462;51.164;17.100;2022-09-11T22:37:51;12.10;;;10.90;;
39782;SDS011;25462;51.164;17.100;2022-09-11T22:42:57;13.10;;;11.30;;
39782;SDS011;25462;51.164;17.100;2022-09-11T22:48:00;13.80;;;10.90;;
39782;SDS011;25462;51.164;17.100;2022-09-11T22:53:05;14.90;;;10.80;;
39782;SDS011;25462;51.164;17.100;2022-09-11T22:58:09;14.60;;;10.90;;
39782;SDS011;25462;51.164;17.100;2022-09-11T23:03:12;13.00;;;10.90;;
39782;SDS011;25462;51.164;17.100;2022-09-11T23:08:16;12.70;;;10.60;;
39782;SDS011;25462;51.164;17.100;2022-09-11T23:13:19;11.30;;;10.10;;
39782;SDS011;25462;51.164;17.100;2022-09-11T23:18:24;14.50;;;9.70;;
39782;SDS011;25462;51.164;17.100;2022-09-11T23:23:28;10.40;;;9.10;;
39782;SDS011;25462;51.164;17.100;2022-09-11T23:28:32;10.20;;;8.70;;
39782;SDS011;25462;51.164;17.100;2022-09-11T23:33:37;10.60;;;7.80;;
39782;SDS011;25462;51.164;17.100;2022-09-11T23:38:43;9.70;;;8.00;;
39782;SDS011;25462;51.164;17.100;2022-09-11T23:43:48;7.80;;;7.00;;
39782;SDS011;25462;51.164;17.100;2022-09-11T23:48:51;8.30;;;7.40;;
39782;SDS011;25462;51.164;17.100;2022-09-11T23:53:59;7.90;;;6.60;;
39782;SDS011;25462;51.164;17.100;2022-09-11T23:59:02;8.00;;;6.40;;
